Time;durP1;ratioP1;P1;durP2;ratioP2;P2;SDS_P1;SDS_P2;PMS_P1;PMS_P2;Temp;Humidity;BMP_temperature;BMP_pressure;BME280_temperature;BME280_humidity;BME280_pressure;Samples;Min_cycle;Max_cycle;Signal;HPM_P1;HPM_P2
2022/07/25 00:01:39;;;;;;;;;;;23.50;95.10;;;;;;4977326;28;20022;-91
2022/07/25 00:04:13;;;;;;;4.80;2.80;;;23.40;95.30;;;;;;4975765;28;20384;-90
2022/07/25 00:06:54;;;;;;;5.97;3.35;;;23.40;95.40;;;;;;4971696;28;20529;-90
2022/07/25 00:09:20;;;;;;;6.05;2.90;;;23.40;95.30;;;;;;4971180;28;20039;-90
2022/07/25 00:12:01;;;;;;;5.20;2.88;;;23.40;95.40;;;;;;4975186;28;20505;-90
2022/07/25 00:14:34;;;;;;;5.35;3.17;;;23.20;95.40;;;;;;4976016;28;20088;-90
2022/07/25 00:17:07;;;;;;;7.20;3.38;;;23.30;95.50;;;;;;4976902;28;20037;-90
2022/07/25 00:22:08;;;;;;;5.78;3.17;;;23.20;95.80;;;;;;4993172;28;20396;-89
2022/07/25 00:24:54;;;;;;;6.70;3.40;;;23.20;95.80;;;;;;4977724;28;20037;-89
2022/07/25 00:27:23;;;;;;;6.30;3.15;;;23.20;95.90;;;;;;4991672;28;20037;-89
2022/07/25 00:29:51;;;;;;;4.65;2.90;;;23.10;95.90;;;;;;4986012;28;20069;-89
2022/07/25 00:32:17;;;;;;;6.50;3.50;;;23.10;96.10;;;;;;4998373;28;20506;-89
2022/07/25 00:34:47;;;;;;;5.45;3.08;;;23.10;96.30;;;;;;4983450;28;20026;-90
2022/07/25 00:37:18;;;;;;;5.65;3.42;;;23.00;96.40;;;;;;4967968;28;20031;-90
2022/07/25 00:39:47;;;;;;;6.45;3.67;;;23.00;96.50;;;;;;4968922;28;20031;-90
2022/07/25 00:42:43;;;;;;;5.60;3.58;;;23.00;96.60;;;;;;4973090;28;20118;-91
2022/07/25 00:45:18;;;;;;;6.57;3.65;;;23.00;96.80;;;;;;4965853;28;20037;-91
2022/07/25 00:47:58;;;;;;;7.10;3.55;;;23.00;96.90;;;;;;4963399;28;20022;-91
2022/07/25 00:50:33;;;;;;;5.97;3.53;;;22.90;97.00;;;;;;5048129;23;20133;-90
2022/07/25 00:53:27;;;;;;;7.10;3.38;;;22.90;97.00;;;;;;5004066;28;20046;-91
2022/07/25 00:56:29;;;;;;;5.85;3.05;;;22.80;97.30;;;;;;4984050;28;20046;-90
2022/07/25 00:59:03;;;;;;;6.90;3.40;;;22.80;97.00;;;;;;4981098;28;20062;-90
2022/07/25 01:01:35;;;;;;;5.47;3.25;;;22.80;97.20;;;;;;4991893;28;20049;-90
2022/07/25 01:04:07;;;;;;;5.50;2.90;;;22.80;97.20;;;;;;4985237;28;20085;-90
2022/07/25 01:06:47;;;;;;;5.22;2.97;;;22.70;97.20;;;;;;4984673;28;20480;-90
2022/07/25 01:09:23;;;;;;;4.63;2.78;;;22.70;97.30;;;;;;4977926;28;20399;-90
2022/07/25 01:12:26;;;;;;;5.57;3.17;;;22.60;97.20;;;;;;4984495;28;20038;-90
2022/07/25 01:15:12;;;;;;;5.22;2.90;;;22.60;97.50;;;;;;4978068;28;20030;-90
2022/07/25 01:18:12;;;;;;;5.20;3.08;;;22.60;97.60;;;;;;4992671;28;20067;-90
2022/07/25 01:20:38;;;;;;;5.85;3.25;;;22.60;97.70;;;;;;4981177;28;20059;-90
2022/07/25 01:23:28;;;;;;;5.80;3.40;;;22.60;97.90;;;;;;4988581;28;20026;-90
2022/07/25 01:25:59;;;;;;;5.70;3.83;;;22.50;98.00;;;;;;4990619;28;20031;-91
2022/07/25 01:28:25;;;;;;;5.47;3.40;;;22.50;98.30;;;;;;4989114;28;20031;-89
2022/07/25 01:30:50;;;;;;;6.32;3.40;;;22.50;98.60;;;;;;4988663;28;20529;-88
2022/07/25 01:33:18;;;;;;;6.85;4.13;;;22.50;98.80;;;;;;4989509;28;20108;-89
2022/07/25 01:35:44;;;;;;;6.82;3.75;;;22.40;98.90;;;;;;4989606;28;20038;-88
2022/07/25 01:38:11;;;;;;;6.30;3.22;;;22.40;99.00;;;;;;4993696;28;20022;-89
2022/07/25 01:40:37;;;;;;;5.88;3.60;;;22.40;99.10;;;;;;4982616;28;20030;-89
2022/07/25 01:43:03;;;;;;;6.47;3.60;;;22.30;99.20;;;;;;4988549;28;20041;-88
2022/07/25 01:45:28;;;;;;;7.07;3.55;;;22.30;99.30;;;;;;4983092;28;20030;-88
2022/07/25 01:47:54;;;;;;;6.80;3.35;;;22.30;99.60;;;;;;4993655;28;20513;-89
2022/07/25 01:50:32;;;;;;;7.25;3.60;;;22.30;99.70;;;;;;4994786;28;20041;-89
2022/07/25 01:52:58;;;;;;;6.20;3.25;;;22.30;99.80;;;;;;4990541;28;20030;-88
2022/07/25 01:55:24;;;;;;;7.78;3.50;;;22.30;99.90;;;;;;4993941;28;20041;-89
2022/07/25 01:57:49;;;;;;;6.15;3.65;;;22.20;99.90;;;;;;5000617;28;20022;-90
2022/07/25 02:00:35;;;;;;;7.43;3.67;;;22.20;99.90;;;;;;5011797;28;20018;-89
2022/07/25 02:05:44;;;;;;;6.03;3.40;;;22.20;99.90;;;;;;4995066;28;20459;-90
2022/07/25 02:08:13;;;;;;;7.53;3.80;;;22.20;99.90;;;;;;4987856;28;20031;-88
2022/07/25 02:10:39;;;;;;;5.25;3.22;;;22.10;99.90;;;;;;4991569;28;20030;-88
2022/07/25 02:13:09;;;;;;;6.40;4.07;;;22.10;99.90;;;;;;4994759;28;20026;-89
2022/07/25 02:15:35;;;;;;;5.93;3.55;;;22.10;99.90;;;;;;4994790;28;20022;-88
2022/07/25 02:18:00;;;;;;;6.22;3.25;;;22.00;99.90;;;;;;4990848;28;20487;-89
2022/07/25 02:20:28;;;;;;;5.95;3.50;;;22.00;99.90;;;;;;4993441;28;20089;-88
2022/07/25 02:22:54;;;;;;;6.28;3.53;;;21.90;99.90;;;;;;4991339;28;20030;-89
2022/07/25 02:25:19;;;;;;;6.68;3.67;;;21.90;99.90;;;;;;4982939;28;20537;-88
2022/07/25 02:27:45;;;;;;;6.30;4.03;;;21.80;99.90;;;;;;4990948;28;20153;-88
2022/07/25 02:30:18;;;;;;;6.40;3.65;;;21.80;99.90;;;;;;4992168;28;20459;-88
2022/07/25 02:32:43;;;;;;;6.60;3.60;;;21.80;99.90;;;;;;4990794;28;20030;-89
2022/07/25 02:35:09;;;;;;;6.75;3.85;;;21.80;99.90;;;;;;4992225;28;20030;-88
2022/07/25 02:37:35;;;;;;;5.72;3.50;;;21.80;99.90;;;;;;4990862;28;20467;-89
2022/07/25 02:40:08;;;;;;;7.57;3.28;;;21.80;99.90;;;;;;4990625;28;20109;-89
2022/07/25 02:43:01;;;;;;;6.32;3.58;;;21.80;99.90;;;;;;4992407;28;20027;-90
2022/07/25 02:45:33;;;;;;;7.45;4.25;;;21.80;99.90;;;;;;4990380;28;20041;-90
2022/07/25 02:52:01;;;;;;;7.07;3.80;;;22.00;99.90;;;;;;4952100;29;20052;-91
2022/07/25 02:55:18;;;;;;;6.05;3.70;;;21.50;99.90;;;;;;4989046;28;20049;-90
2022/07/25 02:58:22;;;;;;;8.85;4.72;;;21.70;99.90;;;;;;4978529;28;20447;-90
2022/07/25 03:01:20;;;;;;;7.25;4.53;;;21.60;99.90;;;;;;4994774;28;20545;-90
2022/07/25 03:03:56;;;;;;;6.72;3.30;;;21.60;99.90;;;;;;4969034;28;20081;-90
2022/07/25 03:06:37;;;;;;;7.43;3.55;;;21.50;99.90;;;;;;4954811;28;20071;-91
2022/07/25 03:09:03;;;;;;;5.55;3.28;;;21.50;99.90;;;;;;4955984;28;20035;-89
2022/07/25 03:11:29;;;;;;;7.38;4.18;;;21.50;99.90;;;;;;4952634;28;20038;-89
2022/07/25 03:13:57;;;;;;;6.57;4.05;;;21.50;99.90;;;;;;4968000;28;20090;-88
2022/07/25 03:16:23;;;;;;;7.55;4.22;;;21.50;99.90;;;;;;4988752;28;20510;-89
2022/07/25 03:18:52;;;;;;;10.52;4.07;;;21.50;99.90;;;;;;4993260;28;20031;-89
2022/07/25 03:21:18;;;;;;;7.93;4.47;;;21.50;99.90;;;;;;4990669;28;20026;-89
2022/07/25 03:23:47;;;;;;;7.10;3.78;;;21.50;99.90;;;;;;4992206;28;20089;-89
2022/07/25 03:26:15;;;;;;;6.25;3.72;;;21.40;99.90;;;;;;4992630;28;20440;-89
2022/07/25 03:28:41;;;;;;;8.32;4.53;;;21.40;99.90;;;;;;4989674;28;20088;-89
2022/07/25 03:31:10;;;;;;;9.40;4.20;;;21.40;99.90;;;;;;4991385;28;20427;-90
2022/07/25 03:33:36;;;;;;;7.72;4.00;;;21.30;99.90;;;;;;4989071;28;20034;-90
2022/07/25 03:36:02;;;;;;;8.60;4.57;;;21.40;99.90;;;;;;4992103;28;20540;-89
2022/07/25 03:38:28;;;;;;;6.93;4.30;;;21.30;99.90;;;;;;4985538;28;20026;-91
2022/07/25 03:40:57;;;;;;;6.78;4.40;;;21.30;99.90;;;;;;4989454;28;20446;-89
2022/07/25 03:43:25;;;;;;;6.13;4.03;;;21.20;99.90;;;;;;4989399;28;20093;-89
2022/07/25 03:45:50;;;;;;;7.97;4.35;;;21.30;99.90;;;;;;4994123;28;20482;-89
2022/07/25 03:48:16;;;;;;;6.22;4.00;;;21.30;99.90;;;;;;4995290;28;20037;-89
2022/07/25 03:50:52;;;;;;;7.57;4.28;;;21.20;99.90;;;;;;4984225;28;20089;-89
2022/07/25 03:53:28;;;;;;;7.13;4.53;;;21.30;99.90;;;;;;4993864;28;20022;-89
2022/07/25 03:55:59;;;;;;;7.78;4.32;;;21.30;99.90;;;;;;4994284;28;20049;-90
2022/07/25 03:58:30;;;;;;;6.97;4.00;;;21.30;99.90;;;;;;4990653;28;20022;-90
2022/07/25 04:00:56;;;;;;;8.63;4.35;;;21.30;99.90;;;;;;4983747;28;20061;-89
2022/07/25 04:03:25;;;;;;;7.90;4.65;;;21.30;99.90;;;;;;4990830;28;20628;-91
2022/07/25 04:05:50;;;;;;;7.57;4.25;;;21.30;99.90;;;;;;4978297;28;20030;-89
2022/07/25 04:08:16;;;;;;;6.75;4.13;;;21.30;99.90;;;;;;4984869;28;20026;-90
2022/07/25 04:10:42;;;;;;;8.88;4.35;;;21.20;99.90;;;;;;4983755;28;20117;-89
2022/07/25 04:13:12;;;;;;;6.40;3.90;;;21.20;99.90;;;;;;4984110;28;20070;-90
2022/07/25 04:15:37;;;;;;;8.57;4.53;;;21.30;99.90;;;;;;4985566;28;20023;-90
2022/07/25 04:18:03;;;;;;;7.57;4.20;;;21.30;99.90;;;;;;4983768;28;20448;-90
2022/07/25 04:20:29;;;;;;;7.40;4.00;;;21.20;99.90;;;;;;4985243;28;20037;-91
2022/07/25 04:22:55;;;;;;;7.85;4.32;;;21.30;99.90;;;;;;4991068;28;20089;-90
2022/07/25 04:25:27;;;;;;;7.20;4.15;;;21.30;99.90;;;;;;4988328;28;20038;-90
2022/07/25 04:27:53;;;;;;;7.15;4.45;;;21.30;99.90;;;;;;4987279;28;20033;-91
2022/07/25 04:30:23;;;;;;;9.35;4.07;;;21.30;99.90;;;;;;4990465;28;20026;-89
2022/07/25 04:32:53;;;;;;;8.05;4.78;;;21.30;99.90;;;;;;4989862;28;20117;-90
2022/07/25 04:35:22;;;;;;;7.47;4.45;;;21.30;99.90;;;;;;4985221;28;20037;-90
2022/07/25 04:37:48;;;;;;;6.80;4.07;;;21.30;99.90;;;;;;4984875;28;20089;-90
2022/07/25 04:40:17;;;;;;;6.88;4.25;;;21.40;99.90;;;;;;4986070;28;20125;-89
2022/07/25 04:42:46;;;;;;;7.80;4.53;;;21.40;99.90;;;;;;4987273;28;20034;-90
2022/07/25 04:45:13;;;;;;;7.80;4.15;;;21.50;99.90;;;;;;4986475;28;20031;-89
2022/07/25 04:47:41;;;;;;;7.97;4.68;;;21.50;99.90;;;;;;4984551;28;20033;-89
2022/07/25 04:50:07;;;;;;;7.32;4.45;;;21.60;99.90;;;;;;4988431;28;20042;-90
2022/07/25 04:52:33;;;;;;;7.22;4.05;;;21.60;99.90;;;;;;4988965;28;20034;-90
2022/07/25 04:55:09;;;;;;;7.28;4.07;;;21.70;99.90;;;;;;4983318;28;20026;-90
2022/07/25 04:57:43;;;;;;;6.38;4.07;;;21.70;99.90;;;;;;4989156;28;20028;-90
2022/07/25 05:00:10;;;;;;;6.90;4.38;;;21.60;99.90;;;;;;4989015;28;20029;-89
2022/07/25 05:02:38;;;;;;;7.90;4.07;;;21.80;99.90;;;;;;4991606;28;20053;-87
2022/07/25 05:05:04;;;;;;;8.85;4.35;;;21.80;99.90;;;;;;4989753;28;20030;-89
2022/07/25 05:07:30;;;;;;;7.63;4.28;;;22.00;99.90;;;;;;4986335;28;20435;-89
2022/07/25 05:09:59;;;;;;;6.72;4.13;;;22.00;99.90;;;;;;5147382;23;20042;-93
2022/07/25 05:12:30;;;;;;;8.45;4.07;;;22.10;99.90;;;;;;5004522;28;20345;-93
2022/07/25 05:14:56;;;;;;;7.28;4.07;;;22.30;99.90;;;;;;5000811;28;20050;-94
2022/07/25 05:17:22;;;;;;;7.18;4.10;;;22.30;99.90;;;;;;5009439;28;20037;-93
2022/07/25 05:19:48;;;;;;;6.68;4.32;;;22.40;99.90;;;;;;5001109;28;20022;-93
2022/07/25 05:22:17;;;;;;;7.10;4.00;;;22.40;99.90;;;;;;5000172;28;20090;-93
2022/07/25 05:24:48;;;;;;;6.50;3.20;;;22.40;99.90;;;;;;5010043;28;20018;-89
2022/07/25 05:27:16;;;;;;;6.68;3.60;;;22.50;99.90;;;;;;5023334;28;20014;-93
2022/07/25 05:29:48;;;;;;;5.75;3.35;;;22.60;99.90;;;;;;4999419;28;20030;-90
2022/07/25 05:32:23;;;;;;;6.32;3.50;;;22.60;99.90;;;;;;4997572;28;20030;-92
2022/07/25 05:34:49;;;;;;;6.43;3.75;;;22.70;99.90;;;;;;5000932;28;20089;-91
2022/07/25 05:37:18;;;;;;;6.53;3.50;;;22.80;99.90;;;;;;5003119;28;20113;-91
2022/07/25 05:40:11;;;;;;;5.90;3.58;;;22.80;99.90;;;;;;4993388;28;20048;-91
2022/07/25 05:45:32;;;;;;;8.25;4.13;;;22.90;99.90;;;;;;4985664;28;20026;-94
2022/07/25 05:47:58;;;;;;;6.85;4.40;;;22.90;99.90;;;;;;5002519;28;20163;-92
2022/07/25 05:50:27;;;;;;;6.00;3.58;;;23.00;99.90;;;;;;5019714;28;20030;-90
2022/07/25 05:52:52;;;;;;;7.70;3.50;;;23.00;99.90;;;;;;4995655;28;20449;-91
2022/07/25 05:55:18;;;;;;;6.35;3.45;;;23.10;99.90;;;;;;5016879;28;20022;-90
2022/07/25 05:57:44;;;;;;;6.70;3.20;;;23.20;99.90;;;;;;4995661;28;20035;-90
2022/07/25 06:00:10;;;;;;;7.07;3.70;;;23.30;99.90;;;;;;5016105;28;20022;-91
2022/07/25 06:02:36;;;;;;;5.47;3.33;;;23.10;99.90;;;;;;5021771;28;20092;-90
2022/07/25 06:05:02;;;;;;;7.78;4.28;;;23.10;99.90;;;;;;5005014;28;20033;-90
2022/07/25 06:07:30;;;;;;;8.15;3.72;;;23.30;99.90;;;;;;5017220;28;20053;-91
2022/07/25 06:09:56;;;;;;;5.80;3.30;;;23.30;99.90;;;;;;4999598;28;20106;-90
2022/07/25 06:12:22;;;;;;;8.43;3.97;;;23.40;99.90;;;;;;4999480;28;20034;-91
2022/07/25 06:14:47;;;;;;;6.50;3.83;;;23.40;99.90;;;;;;5009943;28;20028;-90
2022/07/25 06:17:13;;;;;;;5.80;3.53;;;23.50;99.90;;;;;;5014944;28;20037;-90
2022/07/25 06:19:39;;;;;;;4.93;3.47;;;23.50;99.90;;;;;;5015232;28;20018;-90
2022/07/25 06:22:08;;;;;;;5.72;3.47;;;23.60;99.90;;;;;;5018691;28;20030;-89
2022/07/25 06:24:34;;;;;;;8.43;3.78;;;23.60;99.90;;;;;;4994852;28;20072;-91
2022/07/25 06:27:00;;;;;;;5.57;3.40;;;23.60;99.90;;;;;;5015773;28;20052;-91
2022/07/25 06:29:32;;;;;;;6.93;3.28;;;23.80;99.90;;;;;;4998933;28;20033;-87
2022/07/25 06:32:02;;;;;;;7.30;3.58;;;24.00;99.90;;;;;;4997959;28;20044;-91
2022/07/25 06:34:30;;;;;;;6.53;3.53;;;24.00;99.90;;;;;;5019808;28;20022;-91
2022/07/25 06:36:57;;;;;;;7.22;3.47;;;24.20;99.90;;;;;;5000458;28;20049;-90
2022/07/25 06:39:27;;;;;;;8.45;3.75;;;24.00;99.90;;;;;;5019615;28;20030;-91
2022/07/25 06:41:53;;;;;;;7.30;3.47;;;24.10;99.90;;;;;;5017971;28;20513;-91
2022/07/25 06:44:18;;;;;;;7.60;3.78;;;24.10;99.90;;;;;;5012850;28;20050;-92
2022/07/25 06:46:45;;;;;;;8.20;4.32;;;24.10;99.90;;;;;;5020713;28;20036;-91
2022/07/25 06:49:16;;;;;;;6.03;3.40;;;24.10;99.90;;;;;;4995579;28;20041;-92
2022/07/25 06:51:42;;;;;;;;;;;24.30;99.90;;;;;;5011726;28;20022;-89
2022/07/25 06:54:14;;;;;;;8.25;3.67;;;24.40;99.90;;;;;;5004285;28;20004;-90
2022/07/25 06:56:48;;;;;;;7.30;3.47;;;24.50;99.90;;;;;;5004665;28;20080;-90
2022/07/25 06:59:20;;;;;;;6.63;3.72;;;24.60;99.90;;;;;;5011803;28;20150;-91
2022/07/25 07:01:50;;;;;;;6.32;3.30;;;24.70;99.90;;;;;;5014071;28;20124;-90
2022/07/25 07:04:18;;;;;;;6.72;3.60;;;24.90;99.90;;;;;;4997420;28;20036;-91
2022/07/25 07:06:53;;;;;;;8.18;3.65;;;25.00;99.90;;;;;;4995756;28;20117;-92
2022/07/25 07:09:29;;;;;;;5.85;3.33;;;25.00;99.90;;;;;;4995511;28;20029;-92
2022/07/25 07:12:00;;;;;;;8.73;3.47;;;25.20;99.90;;;;;;4998089;28;20041;-92
2022/07/25 07:14:33;;;;;;;5.22;2.97;;;25.50;99.90;;;;;;5001402;28;20113;-89
2022/07/25 07:17:04;;;;;;;6.97;3.50;;;25.50;99.90;;;;;;5010927;28;20023;-91
2022/07/25 07:19:30;;;;;;;6.22;3.58;;;25.80;99.90;;;;;;4997615;28;20029;-90
2022/07/25 07:21:56;;;;;;;6.93;3.33;;;26.00;99.90;;;;;;5000953;28;20080;-91
2022/07/25 07:24:25;;;;;;;5.78;3.25;;;26.20;99.90;;;;;;5017093;28;20032;-91
2022/07/25 07:26:52;;;;;;;8.60;3.40;;;26.40;99.50;;;;;;4994377;28;20026;-91
2022/07/25 07:29:18;;;;;;;5.32;3.20;;;26.70;99.90;;;;;;4998927;28;20022;-92
2022/07/25 07:31:51;;;;;;;4.82;3.05;;;26.80;99.20;;;;;;5018294;28;20097;-92
2022/07/25 07:34:17;;;;;;;6.60;3.28;;;27.00;98.70;;;;;;4997537;28;20030;-91
2022/07/25 07:36:43;;;;;;;5.18;3.10;;;27.10;98.70;;;;;;4998062;28;20033;-91
2022/07/25 07:39:14;;;;;;;5.28;3.17;;;27.20;98.20;;;;;;4997143;28;20029;-92
2022/07/25 07:41:46;;;;;;;5.32;3.00;;;27.00;98.40;;;;;;4989235;28;20156;-90
2022/07/25 07:44:12;;;;;;;5.25;3.08;;;27.00;97.60;;;;;;4995432;28;20030;-91
2022/07/25 07:46:38;;;;;;;5.90;2.75;;;27.30;97.80;;;;;;4999456;28;20026;-92
2022/07/25 07:49:04;;;;;;;5.30;3.20;;;27.30;97.30;;;;;;5017637;28;20029;-92
2022/07/25 07:51:37;;;;;;;4.60;2.55;;;27.60;97.70;;;;;;4996570;28;20026;-92
2022/07/25 07:56:52;;;;;;;4.38;2.65;;;27.80;96.40;;;;;;5012833;28;20109;-93
2022/07/25 07:59:27;;;;;;;4.00;2.78;;;28.10;96.20;;;;;;5017901;28;20026;-93
2022/07/25 17:46:33;;;;;;;3.20;1.60;;;31.00;68.60;;;;;;5036544;23;20285;-94
2022/07/25 17:50:01;;;;;;;;;;;;;;;;;;;;;
2022/07/25 17:56:49;;;;;;;;;;;;;;;;;;;;;
2022/07/25 18:03:04;;;;;;;4.07;2.17;;;30.40;70.20;;;;;;4983029;23;20417;-93
2022/07/25 18:06:02;;;;;;;3.65;1.83;;;30.20;70.90;;;;;;4959311;28;20030;-93
2022/07/25 23:22:08;;;;;;;1.23;0.30;;;23.70;82.70;;;;;;6132855;23;20024;31
2022/07/25 23:24:34;;;;;;;1.85;0.43;;;23.50;82.40;;;;;;4998549;28;20050;-87
2022/07/25 23:27:00;;;;;;;1.58;0.40;;;23.50;83.00;;;;;;4979084;28;20498;-88
2022/07/25 23:29:26;;;;;;;2.13;0.75;;;23.50;82.30;;;;;;4988306;28;20467;-88
2022/07/25 23:31:51;;;;;;;1.45;0.43;;;23.50;82.30;;;;;;4990524;28;20030;-88
2022/07/25 23:34:17;;;;;;;1.80;0.50;;;23.50;82.40;;;;;;4975143;28;20030;-88
2022/07/25 23:36:43;;;;;;;1.92;0.50;;;23.50;83.70;;;;;;4966572;28;20546;-88
2022/07/25 23:39:08;;;;;;;3.13;0.50;;;23.50;82.80;;;;;;4961435;28;20402;-88
2022/07/25 23:41:34;;;;;;;2.05;0.80;;;23.50;83.00;;;;;;4965589;28;20407;-87
2022/07/25 23:44:00;;;;;;;1.83;0.50;;;23.50;82.70;;;;;;4973422;28;20141;-88
2022/07/25 23:46:26;;;;;;;2.60;0.50;;;23.50;82.90;;;;;;4988611;28;20080;-87
2022/07/25 23:48:52;;;;;;;1.60;0.40;;;23.50;82.50;;;;;;4986705;28;20030;-88
2022/07/25 23:51:20;;;;;;;0.93;0.35;;;23.50;83.00;;;;;;4971575;28;20033;-88
2022/07/25 23:53:46;;;;;;;1.67;0.38;;;23.40;83.00;;;;;;4987968;28;20042;-88
2022/07/25 23:56:12;;;;;;;0.57;0.20;;;23.40;83.00;;;;;;4969860;28;20114;-88
2022/07/25 23:58:38;;;;;;;0.93;0.20;;;23.30;83.30;;;;;;4968379;28;20039;-88
